sensor_id;sensor_type;location;lat;lon;timestamp;temperature;humidity
37300;DHT22;23184;51.902;12.836;2023-11-19T00:02:08;5.10;99.90
37300;DHT22;23184;51.902;12.836;2023-11-19T00:04:37;5.10;99.90
37300;DHT22;23184;51.902;12.836;2023-11-19T00:07:05;5.10;99.90
37300;DHT22;23184;51.902;12.836;2023-11-19T00:09:32;5.10;99.90
37300;DHT22;23184;51.902;12.836;2023-11-19T00:11:58;5.20;99.90
37300;DHT22;23184;51.902;12.836;2023-11-19T00:14:25;5.20;99.90
37300;DHT22;23184;51.902;12.836;2023-11-19T00:16:51;5.10;99.90
37300;DHT22;23184;51.902;12.836;2023-11-19T00:19:16;5.20;99.90
37300;DHT22;23184;51.902;12.836;2023-11-19T00:21:42;5.20;99.90
37300;DHT22;23184;51.902;12.836;2023-11-19T00:24:08;5.20;99.90
37300;DHT22;23184;51.902;12.836;2023-11-19T00:26:34;5.20;99.90
37300;DHT22;23184;51.902;12.836;2023-11-19T00:28:59;5.20;99.90
37300;DHT22;23184;51.902;12.836;2023-11-19T00:31:25;5.20;99.90
37300;DHT22;23184;51.902;12.836;2023-11-19T00:33:53;5.20;99.90
37300;DHT22;23184;51.902;12.836;2023-11-19T00:36:18;5.20;99.90
37300;DHT22;23184;51.902;12.836;2023-11-19T00:38:44;5.20;99.90
37300;DHT22;23184;51.902;12.836;2023-11-19T00:41:10;5.20;99.90
37300;DHT22;23184;51.902;12.836;2023-11-19T00:43:36;5.20;99.90
37300;DHT22;23184;51.902;12.836;2023-11-19T00:46:01;5.20;99.90
37300;DHT22;23184;51.902;12.836;2023-11-19T00:48:29;5.20;99.90
37300;DHT22;23184;51.902;12.836;2023-11-19T00:50:55;5.20;99.90
37300;DHT22;23184;51.902;12.836;2023-11-19T00:53:20;5.10;99.90
37300;DHT22;23184;51.902;12.836;2023-11-19T00:55:46;5.10;99.90
37300;DHT22;23184;51.902;12.836;2023-11-19T00:58:11;5.10;99.90
37300;DHT22;23184;51.902;12.836;2023-11-19T01:00:37;5.00;99.90
37300;DHT22;23184;51.902;12.836;2023-11-19T01:03:02;5.00;99.90
37300;DHT22;23184;51.902;12.836;2023-11-19T01:05:28;5.00;99.90
37300;DHT22;23184;51.902;12.836;2023-11-19T01:07:54;4.90;99.90
37300;DHT22;23184;51.902;12.836;2023-11-19T01:10:20;4.90;99.90
37300;DHT22;23184;51.902;12.836;2023-11-19T01:12:46;4.90;99.90
37300;DHT22;23184;51.902;12.836;2023-11-19T01:15:11;4.90;99.90
37300;DHT22;23184;51.902;12.836;2023-11-19T01:17:38;4.90;99.90
37300;DHT22;23184;51.902;12.836;2023-11-19T01:20:04;4.90;99.90
37300;DHT22;23184;51.902;12.836;2023-11-19T01:22:31;4.90;99.90
37300;DHT22;23184;51.902;12.836;2023-11-19T01:24:57;4.90;99.90
37300;DHT22;23184;51.902;12.836;2023-11-19T01:27:23;4.90;99.90
37300;DHT22;23184;51.902;12.836;2023-11-19T01:29:49;4.90;99.90
37300;DHT22;23184;51.902;12.836;2023-11-19T01:32:15;4.90;99.90
37300;DHT22;23184;51.902;12.836;2023-11-19T01:34:40;4.90;99.90
37300;DHT22;23184;51.902;12.836;2023-11-19T01:37:06;4.90;99.90
37300;DHT22;23184;51.902;12.836;2023-11-19T01:39:32;5.00;99.90
37300;DHT22;23184;51.902;12.836;2023-11-19T01:41:57;5.00;99.90
37300;DHT22;23184;51.902;12.836;2023-11-19T01:44:23;5.00;99.90
37300;DHT22;23184;51.902;12.836;2023-11-19T01:46:49;5.00;99.90
37300;DHT22;23184;51.902;12.836;2023-11-19T01:49:15;5.00;99.90
37300;DHT22;23184;51.902;12.836;2023-11-19T01:51:41;5.00;99.90
37300;DHT22;23184;51.902;12.836;2023-11-19T01:54:08;5.00;99.90
37300;DHT22;23184;51.902;12.836;2023-11-19T01:56:34;5.10;99.90
37300;DHT22;23184;51.902;12.836;2023-11-19T01:59:00;5.10;99.90
37300;DHT22;23184;51.902;12.836;2023-11-19T02:01:27;5.10;99.90
37300;DHT22;23184;51.902;12.836;2023-11-19T02:03:55;5.10;99.90
37300;DHT22;23184;51.902;12.836;2023-11-19T02:06:21;5.10;99.90
37300;DHT22;23184;51.902;12.836;2023-11-19T02:08:46;5.10;99.90
37300;DHT22;23184;51.902;12.836;2023-11-19T02:11:12;5.10;99.90
37300;DHT22;23184;51.902;12.836;2023-11-19T02:13:38;5.00;99.90
37300;DHT22;23184;51.902;12.836;2023-11-19T02:16:04;5.10;99.90
37300;DHT22;23184;51.902;12.836;2023-11-19T02:18:29;5.10;99.90
37300;DHT22;23184;51.902;12.836;2023-11-19T02:20:58;5.10;99.90
37300;DHT22;23184;51.902;12.836;2023-11-19T02:23:26;5.10;99.90
37300;DHT22;23184;51.902;12.836;2023-11-19T02:28:41;5.00;99.90
37300;DHT22;23184;51.902;12.836;2023-11-19T02:31:08;5.00;99.90
37300;DHT22;23184;51.902;12.836;2023-11-19T02:33:37;5.00;99.90
37300;DHT22;23184;51.902;12.836;2023-11-19T02:36:07;5.00;99.90
37300;DHT22;23184;51.902;12.836;2023-11-19T02:38:33;5.00;99.90
37300;DHT22;23184;51.902;12.836;2023-11-19T02:41:02;4.90;99.90
37300;DHT22;23184;51.902;12.836;2023-11-19T02:43:28;4.90;99.90
37300;DHT22;23184;51.902;12.836;2023-11-19T02:45:54;4.80;99.90
37300;DHT22;23184;51.902;12.836;2023-11-19T02:48:21;4.80;99.90
37300;DHT22;23184;51.902;12.836;2023-11-19T02:50:46;4.80;99.90
37300;DHT22;23184;51.902;12.836;2023-11-19T02:53:13;4.70;99.90
37300;DHT22;23184;51.902;12.836;2023-11-19T02:55:39;4.70;99.90
37300;DHT22;23184;51.902;12.836;2023-11-19T02:58:06;4.70;99.90
37300;DHT22;23184;51.902;12.836;2023-11-19T03:00:45;4.60;99.90
37300;DHT22;23184;51.902;12.836;2023-11-19T03:03:17;4.60;99.90
37300;DHT22;23184;51.902;12.836;2023-11-19T03:05:46;4.60;99.90
37300;DHT22;23184;51.902;12.836;2023-11-19T03:08:12;4.60;99.90
37300;DHT22;23184;51.902;12.836;2023-11-19T03:10:38;4.60;99.90
37300;DHT22;23184;51.902;12.836;2023-11-19T03:13:04;4.50;99.90
37300;DHT22;23184;51.902;12.836;2023-11-19T03:15:29;4.50;99.90
37300;DHT22;23184;51.902;12.836;2023-11-19T03:17:55;4.40;99.90
37300;DHT22;23184;51.902;12.836;2023-11-19T03:20:21;4.50;99.90
37300;DHT22;23184;51.902;12.836;2023-11-19T03:22:49;4.50;99.90
37300;DHT22;23184;51.902;12.836;2023-11-19T03:25:16;4.40;99.90
37300;DHT22;23184;51.902;12.836;2023-11-19T03:27:41;4.40;99.90
37300;DHT22;23184;51.902;12.836;2023-11-19T03:30:11;4.50;99.90
37300;DHT22;23184;51.902;12.836;2023-11-19T03:32:36;4.50;99.90
37300;DHT22;23184;51.902;12.836;2023-11-19T03:35:04;4.50;99.90
37300;DHT22;23184;51.902;12.836;2023-11-19T03:37:30;4.50;99.90
37300;DHT22;23184;51.902;12.836;2023-11-19T03:39:57;4.50;99.90
37300;DHT22;23184;51.902;12.836;2023-11-19T03:42:25;4.50;99.90
37300;DHT22;23184;51.902;12.836;2023-11-19T03:44:52;4.50;99.90
37300;DHT22;23184;51.902;12.836;2023-11-19T03:47:18;4.50;99.90
37300;DHT22;23184;51.902;12.836;2023-11-19T03:49:48;4.50;99.90
37300;DHT22;23184;51.902;12.836;2023-11-19T03:52:14;4.50;99.90
37300;DHT22;23184;51.902;12.836;2023-11-19T03:54:39;4.50;99.90
37300;DHT22;23184;51.902;12.836;2023-11-19T03:57:05;4.50;99.90
37300;DHT22;23184;51.902;12.836;2023-11-19T03:59:31;4.50;99.90
37300;DHT22;23184;51.902;12.836;2023-11-19T04:01:56;4.50;99.90
37300;DHT22;23184;51.902;12.836;2023-11-19T04:04:22;4.60;99.90
37300;DHT22;23184;51.902;12.836;2023-11-19T04:06:48;4.60;99.90
37300;DHT22;23184;51.902;12.836;2023-11-19T04:09:13;4.60;99.90
37300;DHT22;23184;51.902;12.836;2023-11-19T04:11:39;4.60;99.90
37300;DHT22;23184;51.902;12.836;2023-11-19T04:14:05;4.60;99.90
37300;DHT22;23184;51.902;12.836;2023-11-19T04:16:31;4.60;99.90
37300;DHT22;23184;51.902;12.836;2023-11-19T04:18:56;4.60;99.90
37300;DHT22;23184;51.902;12.836;2023-11-19T04:21:22;4.70;99.90
37300;DHT22;23184;51.902;12.836;2023-11-19T04:23:49;4.70;99.90
37300;DHT22;23184;51.902;12.836;2023-11-19T04:26:14;4.60;99.90
37300;DHT22;23184;51.902;12.836;2023-11-19T04:28:41;4.70;99.90
37300;DHT22;23184;51.902;12.836;2023-11-19T04:31:06;4.70;99.90
37300;DHT22;23184;51.902;12.836;2023-11-19T04:33:32;4.70;99.90
37300;DHT22;23184;51.902;12.836;2023-11-19T04:35:57;4.70;99.90
37300;DHT22;23184;51.902;12.836;2023-11-19T04:38:23;4.70;99.90
37300;DHT22;23184;51.902;12.836;2023-11-19T04:40:49;4.70;99.90
37300;DHT22;23184;51.902;12.836;2023-11-19T04:43:14;4.70;99.90
37300;DHT22;23184;51.902;12.836;2023-11-19T04:45:40;4.80;99.90
37300;DHT22;23184;51.902;12.836;2023-11-19T04:48:06;4.80;99.90
37300;DHT22;23184;51.902;12.836;2023-11-19T04:50:32;4.80;99.90
37300;DHT22;23184;51.902;12.836;2023-11-19T04:52:57;4.80;99.90
37300;DHT22;23184;51.902;12.836;2023-11-19T04:55:23;4.80;99.90
37300;DHT22;23184;51.902;12.836;2023-11-19T04:57:48;4.90;99.90
37300;DHT22;23184;51.902;12.836;2023-11-19T05:00:14;4.90;99.90
37300;DHT22;23184;51.902;12.836;2023-11-19T05:02:39;5.00;99.90
37300;DHT22;23184;51.902;12.836;2023-11-19T05:05:05;5.00;99.90
37300;DHT22;23184;51.902;12.836;2023-11-19T05:07:31;5.00;99.90
37300;DHT22;23184;51.902;12.836;2023-11-19T05:09:56;5.10;99.90
37300;DHT22;23184;51.902;12.836;2023-11-19T05:12:22;5.20;99.90
37300;DHT22;23184;51.902;12.836;2023-11-19T05:14:48;5.30;99.90
37300;DHT22;23184;51.902;12.836;2023-11-19T05:17:17;5.30;99.90
37300;DHT22;23184;51.902;12.836;2023-11-19T05:19:43;5.40;99.90
37300;DHT22;23184;51.902;12.836;2023-11-19T05:22:09;5.40;99.90
37300;DHT22;23184;51.902;12.836;2023-11-19T05:24:34;5.50;99.90
37300;DHT22;23184;51.902;12.836;2023-11-19T05:27:01;5.50;99.90
37300;DHT22;23184;51.902;12.836;2023-11-19T05:29:27;5.60;99.90
37300;DHT22;23184;51.902;12.836;2023-11-19T05:31:53;5.60;99.90
37300;DHT22;23184;51.902;12.836;2023-11-19T05:34:20;5.60;99.90
37300;DHT22;23184;51.902;12.836;2023-11-19T05:36:46;5.70;99.90
37300;DHT22;23184;51.902;12.836;2023-11-19T05:39:12;5.70;99.90
37300;DHT22;23184;51.902;12.836;2023-11-19T05:41:37;5.70;99.90
37300;DHT22;23184;51.902;12.836;2023-11-19T05:44:03;5.70;99.90
37300;DHT22;23184;51.902;12.836;2023-11-19T05:46:29;5.70;99.90
37300;DHT22;23184;51.902;12.836;2023-11-19T05:48:54;5.70;99.90
37300;DHT22;23184;51.902;12.836;2023-11-19T05:51:20;5.80;99.90
37300;DHT22;23184;51.902;12.836;2023-11-19T05:53:45;5.80;99.90
37300;DHT22;23184;51.902;12.836;2023-11-19T05:56:11;5.80;99.90
37300;DHT22;23184;51.902;12.836;2023-11-19T05:58:37;5.80;99.90
37300;DHT22;23184;51.902;12.836;2023-11-19T06:01:04;5.90;99.90
37300;DHT22;23184;51.902;12.836;2023-11-19T06:03:29;5.90;99.90
37300;DHT22;23184;51.902;12.836;2023-11-19T06:05:55;5.90;99.90
37300;DHT22;23184;51.902;12.836;2023-11-19T06:08:21;5.90;99.90
37300;DHT22;23184;51.902;12.836;2023-11-19T06:10:46;5.90;99.90
37300;DHT22;23184;51.902;12.836;2023-11-19T06:13:13;5.90;99.90
37300;DHT22;23184;51.902;12.836;2023-11-19T06:15:41;6.00;99.90
37300;DHT22;23184;51.902;12.836;2023-11-19T06:18:07;6.00;99.90
37300;DHT22;23184;51.902;12.836;2023-11-19T06:20:33;6.00;99.90
37300;DHT22;23184;51.902;12.836;2023-11-19T06:22:59;6.10;99.90
37300;DHT22;23184;51.902;12.836;2023-11-19T06:25:25;6.10;99.90
37300;DHT22;23184;51.902;12.836;2023-11-19T06:27:51;6.10;99.90
37300;DHT22;23184;51.902;12.836;2023-11-19T06:30:17;6.10;99.90
37300;DHT22;23184;51.902;12.836;2023-11-19T06:32:42;6.10;99.90
37300;DHT22;23184;51.902;12.836;2023-11-19T06:35:08;6.20;99.90
37300;DHT22;23184;51.902;12.836;2023-11-19T06:37:35;6.20;99.90
37300;DHT22;23184;51.902;12.836;2023-11-19T06:40:01;6.30;99.90
37300;DHT22;23184;51.902;12.836;2023-11-19T06:42:27;6.30;99.90
37300;DHT22;23184;51.902;12.836;2023-11-19T06:44:52;6.30;99.90
37300;DHT22;23184;51.902;12.836;2023-11-19T06:47:18;6.30;99.90
37300;DHT22;23184;51.902;12.836;2023-11-19T06:49:44;6.40;99.90
37300;DHT22;23184;51.902;12.836;2023-11-19T06:52:10;6.40;99.90
37300;DHT22;23184;51.902;12.836;2023-11-19T06:54:38;6.40;99.90
37300;DHT22;23184;51.902;12.836;2023-11-19T06:57:04;6.50;99.90
37300;DHT22;23184;51.902;12.836;2023-11-19T06:59:30;6.50;99.90
37300;DHT22;23184;51.902;12.836;2023-11-19T07:01:56;6.60;99.90
37300;DHT22;23184;51.902;12.836;2023-11-19T07:04:22;6.70;99.90
37300;DHT22;23184;51.902;12.836;2023-11-19T07:06:47;6.70;99.90
37300;DHT22;23184;51.902;12.836;2023-11-19T07:09:14;6.80;99.90
37300;DHT22;23184;51.902;12.836;2023-11-19T07:11:40;6.80;99.90
37300;DHT22;23184;51.902;12.836;2023-11-19T07:14:07;6.90;99.90
37300;DHT22;23184;51.902;12.836;2023-11-19T07:16:34;7.00;99.90
37300;DHT22;23184;51.902;12.836;2023-11-19T07:19:00;7.00;99.90
37300;DHT22;23184;51.902;12.836;2023-11-19T07:21:26;7.10;99.90
37300;DHT22;23184;51.902;12.836;2023-11-19T07:23:54;7.00;99.90
37300;DHT22;23184;51.902;12.836;2023-11-19T07:26:19;7.10;99.90
37300;DHT22;23184;51.902;12.836;2023-11-19T07:28:45;7.10;99.90
37300;DHT22;23184;51.902;12.836;2023-11-19T07:31:11;7.20;99.90
37300;DHT22;23184;51.902;12.836;2023-11-19T07:33:39;7.20;99.90
37300;DHT22;23184;51.902;12.836;2023-11-19T07:36:05;7.30;99.90
37300;DHT22;23184;51.902;12.836;2023-11-19T07:38:31;7.20;99.90
37300;DHT22;23184;51.902;12.836;2023-11-19T07:40:56;7.30;99.90
37300;DHT22;23184;51.902;12.836;2023-11-19T07:43:22;7.30;99.90
37300;DHT22;23184;51.902;12.836;2023-11-19T07:45:47;7.40;99.90
37300;DHT22;23184;51.902;12.836;2023-11-19T07:48:13;7.40;99.90
37300;DHT22;23184;51.902;12.836;2023-11-19T07:50:39;7.40;99.90
37300;DHT22;23184;51.902;12.836;2023-11-19T07:53:07;7.40;99.90
37300;DHT22;23184;51.902;12.836;2023-11-19T07:55:34;7.40;99.90
37300;DHT22;23184;51.902;12.836;2023-11-19T07:57:59;7.50;99.90
37300;DHT22;23184;51.902;12.836;2023-11-19T08:00:25;7.50;99.90
37300;DHT22;23184;51.902;12.836;2023-11-19T08:02:50;7.60;99.90
37300;DHT22;23184;51.902;12.836;2023-11-19T08:05:16;7.60;99.90
37300;DHT22;23184;51.902;12.836;2023-11-19T08:07:41;7.70;99.90
37300;DHT22;23184;51.902;12.836;2023-11-19T08:10:07;7.70;99.90
37300;DHT22;23184;51.902;12.836;2023-11-19T08:12:35;7.70;99.90
37300;DHT22;23184;51.902;12.836;2023-11-19T08:15:05;7.80;99.90
37300;DHT22;23184;51.902;12.836;2023-11-19T08:17:30;7.80;99.90
37300;DHT22;23184;51.902;12.836;2023-11-19T08:19:56;7.90;99.90
37300;DHT22;23184;51.902;12.836;2023-11-19T08:22:22;7.90;99.90
37300;DHT22;23184;51.902;12.836;2023-11-19T08:24:48;8.00;99.90
37300;DHT22;23184;51.902;12.836;2023-11-19T08:27:14;8.00;99.90
37300;DHT22;23184;51.902;12.836;2023-11-19T08:29:39;8.10;99.90
37300;DHT22;23184;51.902;12.836;2023-11-19T08:32:06;8.20;99.90
37300;DHT22;23184;51.902;12.836;2023-11-19T08:34:32;8.30;99.90
37300;DHT22;23184;51.902;12.836;2023-11-19T08:36:58;8.30;99.90
37300;DHT22;23184;51.902;12.836;2023-11-19T08:39:23;8.40;99.90
37300;DHT22;23184;51.902;12.836;2023-11-19T08:41:49;8.50;99.90
37300;DHT22;23184;51.902;12.836;2023-11-19T08:44:15;8.50;99.90
37300;DHT22;23184;51.902;12.836;2023-11-19T08:46:50;8.60;99.90
37300;DHT22;23184;51.902;12.836;2023-11-19T08:49:16;8.70;99.90
37300;DHT22;23184;51.902;12.836;2023-11-19T08:51:41;8.70;99.90
37300;DHT22;23184;51.902;12.836;2023-11-19T08:54:07;8.80;99.90
37300;DHT22;23184;51.902;12.836;2023-11-19T08:56:33;9.00;99.90
37300;DHT22;23184;51.902;12.836;2023-11-19T08:59:00;9.10;99.90
37300;DHT22;23184;51.902;12.836;2023-11-19T09:01:26;9.20;99.90
37300;DHT22;23184;51.902;12.836;2023-11-19T09:03:51;9.30;99.90
37300;DHT22;23184;51.902;12.836;2023-11-19T09:06:17;9.50;99.90
37300;DHT22;23184;51.902;12.836;2023-11-19T09:08:43;9.60;99.90
37300;DHT22;23184;51.902;12.836;2023-11-19T09:11:09;9.70;99.90
37300;DHT22;23184;51.902;12.836;2023-11-19T09:13:35;9.70;99.90
37300;DHT22;23184;51.902;12.836;2023-11-19T09:16:01;9.70;99.90
37300;DHT22;23184;51.902;12.836;2023-11-19T09:18:31;9.70;99.90
37300;DHT22;23184;51.902;12.836;2023-11-19T09:20:58;9.80;99.90
37300;DHT22;23184;51.902;12.836;2023-11-19T09:23:24;9.80;99.90
37300;DHT22;23184;51.902;12.836;2023-11-19T09:25:50;9.90;99.90
37300;DHT22;23184;51.902;12.836;2023-11-19T09:28:16;9.90;99.90
37300;DHT22;23184;51.902;12.836;2023-11-19T09:30:41;10.00;99.90
37300;DHT22;23184;51.902;12.836;2023-11-19T09:33:07;10.10;99.90
37300;DHT22;23184;51.902;12.836;2023-11-19T09:35:33;10.20;99.90
37300;DHT22;23184;51.902;12.836;2023-11-19T09:37:58;10.30;99.90
37300;DHT22;23184;51.902;12.836;2023-11-19T09:40:24;10.30;99.90
37300;DHT22;23184;51.902;12.836;2023-11-19T09:42:50;10.40;99.90
37300;DHT22;23184;51.902;12.836;2023-11-19T09:45:17;10.60;99.90
37300;DHT22;23184;51.902;12.836;2023-11-19T09:47:44;10.70;99.90
37300;DHT22;23184;51.902;12.836;2023-11-19T09:50:17;10.80;99.90
37300;DHT22;23184;51.902;12.836;2023-11-19T09:52:47;10.80;99.90
37300;DHT22;23184;51.902;12.836;2023-11-19T09:55:12;10.80;99.90
37300;DHT22;23184;51.902;12.836;2023-11-19T09:57:39;10.90;99.90
37300;DHT22;23184;51.902;12.836;2023-11-19T10:00:08;11.00;99.90
37300;DHT22;23184;51.902;12.836;2023-11-19T10:02:36;11.20;99.90
37300;DHT22;23184;51.902;12.836;2023-11-19T10:05:07;11.30;99.90
37300;DHT22;23184;51.902;12.836;2023-11-19T10:07:34;11.40;99.90
37300;DHT22;23184;51.902;12.836;2023-11-19T10:10:03;11.40;99.90
37300;DHT22;23184;51.902;12.836;2023-11-19T10:12:29;11.40;99.90
37300;DHT22;23184;51.902;12.836;2023-11-19T10:14:58;11.40;99.90
37300;DHT22;23184;51.902;12.836;2023-11-19T10:17:28;11.40;99.90
37300;DHT22;23184;51.902;12.836;2023-11-19T10:19:55;11.40;99.90
37300;DHT22;23184;51.902;12.836;2023-11-19T10:22:23;11.50;99.90
37300;DHT22;23184;51.902;12.836;2023-11-19T10:24:49;11.50;99.90
37300;DHT22;23184;51.902;12.836;2023-11-19T10:27:15;11.50;99.90
37300;DHT22;23184;51.902;12.836;2023-11-19T10:29:47;11.60;99.90
37300;DHT22;23184;51.902;12.836;2023-11-19T10:32:13;11.60;99.90
37300;DHT22;23184;51.902;12.836;2023-11-19T10:34:40;11.70;99.90
37300;DHT22;23184;51.902;12.836;2023-11-19T10:37:07;11.80;99.90
37300;DHT22;23184;51.902;12.836;2023-11-19T10:39:51;11.80;99.90
37300;DHT22;23184;51.902;12.836;2023-11-19T10:42:19;11.80;99.90
37300;DHT22;23184;51.902;12.836;2023-11-19T10:44:45;11.90;99.90
37300;DHT22;23184;51.902;12.836;2023-11-19T10:47:13;11.90;99.90
37300;DHT22;23184;51.902;12.836;2023-11-19T10:49:39;11.90;99.90
37300;DHT22;23184;51.902;12.836;2023-11-19T10:52:05;11.80;99.90
37300;DHT22;23184;51.902;12.836;2023-11-19T10:54:34;11.80;99.90
37300;DHT22;23184;51.902;12.836;2023-11-19T10:57:01;11.90;99.90
37300;DHT22;23184;51.902;12.836;2023-11-19T10:59:30;12.00;99.90
37300;DHT22;23184;51.902;12.836;2023-11-19T11:01:56;12.10;99.90
37300;DHT22;23184;51.902;12.836;2023-11-19T11:04:25;12.20;99.90
37300;DHT22;23184;51.902;12.836;2023-11-19T11:06:54;12.30;99.90
37300;DHT22;23184;51.902;12.836;2023-11-19T11:09:21;12.40;99.90
37300;DHT22;23184;51.902;12.836;2023-11-19T11:11:47;12.50;99.90
37300;DHT22;23184;51.902;12.836;2023-11-19T11:14:13;12.50;99.90
37300;DHT22;23184;51.902;12.836;2023-11-19T11:16:43;12.30;99.90
37300;DHT22;23184;51.902;12.836;2023-11-19T11:19:12;12.10;99.90
37300;DHT22;23184;51.902;12.836;2023-11-19T11:21:41;12.00;99.90
37300;DHT22;23184;51.902;12.836;2023-11-19T11:24:39;11.80;99.90
37300;DHT22;23184;51.902;12.836;2023-11-19T11:30:25;11.80;99.90
37300;DHT22;23184;51.902;12.836;2023-11-19T11:36:00;12.00;99.90
37300;DHT22;23184;51.902;12.836;2023-11-19T11:38:28;12.10;99.90
37300;DHT22;23184;51.902;12.836;2023-11-19T11:41:20;12.20;99.90
37300;DHT22;23184;51.902;12.836;2023-11-19T11:43:51;12.30;99.90
37300;DHT22;23184;51.902;12.836;2023-11-19T11:49:04;12.30;99.90
37300;DHT22;23184;51.902;12.836;2023-11-19T11:54:09;12.20;99.90
37300;DHT22;23184;51.902;12.836;2023-11-19T11:56:37;12.20;99.90
37300;DHT22;23184;51.902;12.836;2023-11-19T11:59:07;12.10;99.90
37300;DHT22;23184;51.902;12.836;2023-11-19T12:01:32;12.10;99.90
37300;DHT22;23184;51.902;12.836;2023-11-19T12:03:58;12.10;99.90
37300;DHT22;23184;51.902;12.836;2023-11-19T12:06:24;12.10;99.90
37300;DHT22;23184;51.902;12.836;2023-11-19T12:08:52;12.20;99.90
37300;DHT22;23184;51.902;12.836;2023-11-19T12:11:17;12.30;99.90
37300;DHT22;23184;51.902;12.836;2023-11-19T12:13:53;12.40;99.90
37300;DHT22;23184;51.902;12.836;2023-11-19T12:16:21;12.50;99.90
37300;DHT22;23184;51.902;12.836;2023-11-19T12:18:47;12.60;99.90
37300;DHT22;23184;51.902;12.836;2023-11-19T12:21:30;12.60;99.90
37300;DHT22;23184;51.902;12.836;2023-11-19T12:23:58;12.60;99.90
37300;DHT22;23184;51.902;12.836;2023-11-19T12:26:34;12.50;99.90
37300;DHT22;23184;51.902;12.836;2023-11-19T12:29:00;12.40;99.90
37300;DHT22;23184;51.902;12.836;2023-11-19T12:31:26;12.40;99.90
37300;DHT22;23184;51.902;12.836;2023-11-19T12:33:51;12.30;99.90
37300;DHT22;23184;51.902;12.836;2023-11-19T12:36:18;12.30;99.90
37300;DHT22;23184;51.902;12.836;2023-11-19T12:38:45;12.20;99.90
37300;DHT22;23184;51.902;12.836;2023-11-19T12:41:11;12.20;99.90
37300;DHT22;23184;51.902;12.836;2023-11-19T12:43:38;12.30;99.90
37300;DHT22;23184;51.902;12.836;2023-11-19T12:46:18;12.30;99.90
37300;DHT22;23184;51.902;12.836;2023-11-19T12:48:45;12.40;99.90
37300;DHT22;23184;51.902;12.836;2023-11-19T12:51:11;12.30;99.90
37300;DHT22;23184;51.902;12.836;2023-11-19T12:53:51;12.30;99.90
37300;DHT22;23184;51.902;12.836;2023-11-19T12:56:20;12.40;99.90
37300;DHT22;23184;51.902;12.836;2023-11-19T12:58:45;12.30;99.90
37300;DHT22;23184;51.902;12.836;2023-11-19T13:01:19;12.20;99.90
37300;DHT22;23184;51.902;12.836;2023-11-19T13:03:45;12.10;99.90
37300;DHT22;23184;51.902;12.836;2023-11-19T13:06:13;12.10;99.90
37300;DHT22;23184;51.902;12.836;2023-11-19T13:08:48;12.00;99.90
37300;DHT22;23184;51.902;12.836;2023-11-19T13:11:33;12.00;99.90
37300;DHT22;23184;51.902;12.836;2023-11-19T13:14:05;12.20;99.90
37300;DHT22;23184;51.902;12.836;2023-11-19T13:16:33;12.20;99.90
37300;DHT22;23184;51.902;12.836;2023-11-19T13:19:01;12.20;99.90
37300;DHT22;23184;51.902;12.836;2023-11-19T13:21:28;12.30;99.90
37300;DHT22;23184;51.902;12.836;2023-11-19T13:23:55;12.30;99.90
37300;DHT22;23184;51.902;12.836;2023-11-19T13:26:20;12.40;99.90
37300;DHT22;23184;51.902;12.836;2023-11-19T13:28:46;12.40;99.90
37300;DHT22;23184;51.902;12.836;2023-11-19T13:31:12;12.30;99.90
37300;DHT22;23184;51.902;12.836;2023-11-19T13:33:37;12.30;99.90
37300;DHT22;23184;51.902;12.836;2023-11-19T13:36:04;12.30;99.90
37300;DHT22;23184;51.902;12.836;2023-11-19T13:38:32;12.30;99.90
37300;DHT22;23184;51.902;12.836;2023-11-19T13:40:58;12.20;99.90
37300;DHT22;23184;51.902;12.836;2023-11-19T13:43:24;12.20;99.90
37300;DHT22;23184;51.902;12.836;2023-11-19T13:45:50;12.10;99.90
37300;DHT22;23184;51.902;12.836;2023-11-19T13:48:18;12.10;99.90
37300;DHT22;23184;51.902;12.836;2023-11-19T13:50:44;12.10;99.90
37300;DHT22;23184;51.902;12.836;2023-11-19T13:53:09;12.00;99.90
37300;DHT22;23184;51.902;12.836;2023-11-19T13:55:35;12.00;99.90
37300;DHT22;23184;51.902;12.836;2023-11-19T13:58:01;11.90;99.90
37300;DHT22;23184;51.902;12.836;2023-11-19T14:00:26;11.80;99.90
37300;DHT22;23184;51.902;12.836;2023-11-19T14:02:52;11.80;99.90
37300;DHT22;23184;51.902;12.836;2023-11-19T14:05:17;11.60;99.90
37300;DHT22;23184;51.902;12.836;2023-11-19T14:07:43;11.60;99.90
37300;DHT22;23184;51.902;12.836;2023-11-19T14:10:10;11.70;99.90
37300;DHT22;23184;51.902;12.836;2023-11-19T14:12:39;11.70;99.90
37300;DHT22;23184;51.902;12.836;2023-11-19T14:15:08;11.80;99.90
37300;DHT22;23184;51.902;12.836;2023-11-19T14:17:35;11.70;99.90
37300;DHT22;23184;51.902;12.836;2023-11-19T14:20:02;11.70;99.90
37300;DHT22;23184;51.902;12.836;2023-11-19T14:22:30;11.80;99.90
37300;DHT22;23184;51.902;12.836;2023-11-19T14:24:55;11.80;99.90
37300;DHT22;23184;51.902;12.836;2023-11-19T14:27:21;11.80;99.90
37300;DHT22;23184;51.902;12.836;2023-11-19T14:29:47;11.80;99.90
37300;DHT22;23184;51.902;12.836;2023-11-19T14:32:13;11.70;99.90
37300;DHT22;23184;51.902;12.836;2023-11-19T14:34:39;11.60;99.90
37300;DHT22;23184;51.902;12.836;2023-11-19T14:37:04;11.60;99.90
37300;DHT22;23184;51.902;12.836;2023-11-19T14:39:30;11.50;99.90
37300;DHT22;23184;51.902;12.836;2023-11-19T14:41:57;11.50;99.90
37300;DHT22;23184;51.902;12.836;2023-11-19T14:44:26;11.60;99.90
37300;DHT22;23184;51.902;12.836;2023-11-19T14:46:52;11.70;99.90
37300;DHT22;23184;51.902;12.836;2023-11-19T14:49:17;11.70;99.90
37300;DHT22;23184;51.902;12.836;2023-11-19T14:51:43;11.70;99.90
37300;DHT22;23184;51.902;12.836;2023-11-19T14:54:08;11.70;99.90
37300;DHT22;23184;51.902;12.836;2023-11-19T14:56:34;11.60;99.90
37300;DHT22;23184;51.902;12.836;2023-11-19T14:58:59;11.50;99.90
37300;DHT22;23184;51.902;12.836;2023-11-19T15:01:25;11.50;99.90
37300;DHT22;23184;51.902;12.836;2023-11-19T15:03:51;11.40;99.90
37300;DHT22;23184;51.902;12.836;2023-11-19T15:06:16;11.30;99.90
37300;DHT22;23184;51.902;12.836;2023-11-19T15:08:42;11.20;99.90
37300;DHT22;23184;51.902;12.836;2023-11-19T15:11:10;11.10;99.90
37300;DHT22;23184;51.902;12.836;2023-11-19T15:13:37;10.90;99.90
37300;DHT22;23184;51.902;12.836;2023-11-19T15:16:03;11.00;99.90
37300;DHT22;23184;51.902;12.836;2023-11-19T15:18:31;11.00;99.90
37300;DHT22;23184;51.902;12.836;2023-11-19T15:20:57;11.00;99.90
37300;DHT22;23184;51.902;12.836;2023-11-19T15:23:22;11.00;99.90
37300;DHT22;23184;51.902;12.836;2023-11-19T15:25:48;10.80;99.90
37300;DHT22;23184;51.902;12.836;2023-11-19T15:28:14;10.70;99.90
37300;DHT22;23184;51.902;12.836;2023-11-19T15:30:40;10.60;99.90
37300;DHT22;23184;51.902;12.836;2023-11-19T15:33:06;10.60;99.90
37300;DHT22;23184;51.902;12.836;2023-11-19T15:35:34;10.60;99.90
37300;DHT22;23184;51.902;12.836;2023-11-19T15:37:59;10.70;99.90